Pagrindinis puslapis
METAR-TAF:

METAR-TAF

Oro uostai :

Malacca, Malaizija

platuma: 02-16N, ilguma: 102-15E, Aukštis: 11 m

Dabartinis oras

Ataskaita buvo paskelbta 43 minutes, ne 02:00 UTC
Vėjas 10 kt iš Šiaurės Rytų, svyruoja nuo Šiaurės/Šiaurės Vakarų ir Pietryčių
Temperatūra 28°C
Drėgmė 70%
Slėgis 1011 hPa
Matomumas 10 km arba daugiau
Mažai debesys ne aukštis 2000 ft

METAR: WMKM 290200Z 05010KT 340V140 9999 FEW020 28/22 Q1011

Laikas: 10:43 (02:43 UTC)

Prognozė

Ataskaita buvo paskelbta 3 valandos ir 43 minutes, ne 23:00 UTC
Prognozė galioja nuo 29 metu 00 UTC su 01 metu 00 UTC
Vėjas 8 kt iš Šiaurės Rytų
Matomumas 10 km arba daugiau
Mažai debesys ne aukštis 1800 ft
Laikinai
nuo 29 metu 04 UTC su 29 metu 08 UTC
Vėjas 9 kt iš Šiaurės/Šiaurės Rytų su gūsio iki 20 kt
Tapsmas
nuo 29 metu 12 UTC su 29 metu 13 UTC
Vėjas 6 kt iš Rytų/Šiaurės Rytų
Mažai debesys ne aukštis 2800 ft

TAF: WMKM 282300Z 2900/0100 05008KT 9999 FEW018 TEMPO 2904/2908 03009G20KT BECMG 2912/2913 07006KT FEW028

Orai ataskaitas ir orų prognozės (METAR, TAF).

turimą stotys yra geltonos ir raudonos taškus žemėlapyje.

Perkelti pele per norėdami pamatyti stoties vardą.

Tada spustelėkite, norėdami matyti oro stebėjimo ir prognozės.

Norėdami pakeisti žemėlapį: spustelėkite ant žalios mygtukų su juodo kryžiaus žemyn,; žalią mygtuką su brūkšneliu, jei norite nutolinti; arba žalių rodyklių gretimoms žemėlapius.


METAR-TAF: